sensor_id;sensor_type;location;lat;lon;timestamp;P1;durP1;ratioP1;P2;durP2;ratioP2
10517;SDS011;5307;42.548;22.968;2022-08-21T00:01:35;12.52;;;3.88;;
10517;SDS011;5307;42.548;22.968;2022-08-21T00:04:04;7.60;;;4.15;;
10517;SDS011;5307;42.548;22.968;2022-08-21T00:06:31;7.55;;;3.60;;
10517;SDS011;5307;42.548;22.968;2022-08-21T00:08:59;9.10;;;4.40;;
10517;SDS011;5307;42.548;22.968;2022-08-21T00:11:25;7.70;;;4.60;;
10517;SDS011;5307;42.548;22.968;2022-08-21T00:13:53;7.10;;;5.10;;
10517;SDS011;5307;42.548;22.968;2022-08-21T00:16:20;11.00;;;5.13;;
10517;SDS011;5307;42.548;22.968;2022-08-21T00:18:48;9.18;;;4.65;;
10517;SDS011;5307;42.548;22.968;2022-08-21T00:21:16;8.63;;;4.65;;
10517;SDS011;5307;42.548;22.968;2022-08-21T00:23:43;9.13;;;4.82;;
10517;SDS011;5307;42.548;22.968;2022-08-21T00:26:09;9.02;;;4.70;;
10517;SDS011;5307;42.548;22.968;2022-08-21T00:28:37;7.03;;;4.65;;
10517;SDS011;5307;42.548;22.968;2022-08-21T00:31:03;10.95;;;5.35;;
10517;SDS011;5307;42.548;22.968;2022-08-21T00:33:30;10.55;;;5.15;;
10517;SDS011;5307;42.548;22.968;2022-08-21T00:35:59;6.68;;;4.53;;
10517;SDS011;5307;42.548;22.968;2022-08-21T00:38:27;13.73;;;5.18;;
10517;SDS011;5307;42.548;22.968;2022-08-21T00:40:55;11.75;;;5.10;;
10517;SDS011;5307;42.548;22.968;2022-08-21T00:43:24;10.02;;;5.10;;
10517;SDS011;5307;42.548;22.968;2022-08-21T00:45:54;8.23;;;4.90;;
10517;SDS011;5307;42.548;22.968;2022-08-21T00:48:22;15.05;;;4.93;;
10517;SDS011;5307;42.548;22.968;2022-08-21T00:50:52;8.50;;;4.82;;
10517;SDS011;5307;42.548;22.968;2022-08-21T00:53:24;10.43;;;4.22;;
10517;SDS011;5307;42.548;22.968;2022-08-21T00:55:53;6.55;;;4.78;;
10517;SDS011;5307;42.548;22.968;2022-08-21T00:58:21;9.60;;;4.18;;
10517;SDS011;5307;42.548;22.968;2022-08-21T01:00:49;9.52;;;4.15;;
10517;SDS011;5307;42.548;22.968;2022-08-21T01:03:17;7.93;;;3.95;;
10517;SDS011;5307;42.548;22.968;2022-08-21T01:05:46;12.65;;;4.15;;
10517;SDS011;5307;42.548;22.968;2022-08-21T01:08:13;10.00;;;4.50;;
10517;SDS011;5307;42.548;22.968;2022-08-21T01:10:44;8.63;;;4.15;;
10517;SDS011;5307;42.548;22.968;2022-08-21T01:13:12;5.03;;;3.65;;
10517;SDS011;5307;42.548;22.968;2022-08-21T01:15:43;10.15;;;3.97;;
10517;SDS011;5307;42.548;22.968;2022-08-21T01:18:12;8.85;;;3.55;;
10517;SDS011;5307;42.548;22.968;2022-08-21T01:20:41;8.38;;;3.60;;
10517;SDS011;5307;42.548;22.968;2022-08-21T01:23:12;9.90;;;3.92;;
10517;SDS011;5307;42.548;22.968;2022-08-21T01:25:39;11.05;;;3.47;;
10517;SDS011;5307;42.548;22.968;2022-08-21T01:28:06;8.50;;;4.03;;
10517;SDS011;5307;42.548;22.968;2022-08-21T01:30:40;6.88;;;3.45;;
10517;SDS011;5307;42.548;22.968;2022-08-21T01:33:09;10.20;;;3.83;;
10517;SDS011;5307;42.548;22.968;2022-08-21T01:35:36;8.57;;;3.90;;
10517;SDS011;5307;42.548;22.968;2022-08-21T01:38:05;12.45;;;3.83;;
10517;SDS011;5307;42.548;22.968;2022-08-21T01:40:33;7.50;;;4.30;;
10517;SDS011;5307;42.548;22.968;2022-08-21T01:43:00;9.57;;;4.05;;
10517;SDS011;5307;42.548;22.968;2022-08-21T01:45:29;11.93;;;4.30;;
10517;SDS011;5307;42.548;22.968;2022-08-21T01:47:56;12.10;;;4.03;;
10517;SDS011;5307;42.548;22.968;2022-08-21T01:50:23;7.20;;;3.92;;
10517;SDS011;5307;42.548;22.968;2022-08-21T01:52:51;14.38;;;4.07;;
10517;SDS011;5307;42.548;22.968;2022-08-21T01:55:18;8.02;;;3.70;;
10517;SDS011;5307;42.548;22.968;2022-08-21T01:57:48;6.78;;;3.75;;
10517;SDS011;5307;42.548;22.968;2022-08-21T02:00:16;9.43;;;4.10;;
10517;SDS011;5307;42.548;22.968;2022-08-21T02:02:45;21.52;;;3.88;;
10517;SDS011;5307;42.548;22.968;2022-08-21T02:05:12;10.75;;;3.72;;
10517;SDS011;5307;42.548;22.968;2022-08-21T02:07:40;9.18;;;3.95;;
10517;SDS011;5307;42.548;22.968;2022-08-21T02:10:08;8.00;;;4.57;;
10517;SDS011;5307;42.548;22.968;2022-08-21T02:12:37;11.55;;;5.10;;
10517;SDS011;5307;42.548;22.968;2022-08-21T02:15:06;11.23;;;6.25;;
10517;SDS011;5307;42.548;22.968;2022-08-21T02:17:38;12.18;;;6.15;;
10517;SDS011;5307;42.548;22.968;2022-08-21T02:20:07;16.67;;;7.50;;
10517;SDS011;5307;42.548;22.968;2022-08-21T02:22:35;12.82;;;7.55;;
10517;SDS011;5307;42.548;22.968;2022-08-21T02:25:03;13.40;;;7.72;;
10517;SDS011;5307;42.548;22.968;2022-08-21T02:27:36;15.60;;;8.05;;
10517;SDS011;5307;42.548;22.968;2022-08-21T02:30:07;13.88;;;9.95;;
10517;SDS011;5307;42.548;22.968;2022-08-21T02:32:36;17.30;;;9.65;;
10517;SDS011;5307;42.548;22.968;2022-08-21T02:35:03;16.15;;;8.48;;
10517;SDS011;5307;42.548;22.968;2022-08-21T02:37:30;12.85;;;8.05;;
10517;SDS011;5307;42.548;22.968;2022-08-21T02:39:58;10.82;;;7.03;;
10517;SDS011;5307;42.548;22.968;2022-08-21T02:42:26;15.60;;;8.00;;
10517;SDS011;5307;42.548;22.968;2022-08-21T02:44:53;15.48;;;7.00;;
10517;SDS011;5307;42.548;22.968;2022-08-21T02:47:21;17.42;;;7.85;;
10517;SDS011;5307;42.548;22.968;2022-08-21T02:49:48;15.35;;;8.02;;
10517;SDS011;5307;42.548;22.968;2022-08-21T02:52:15;10.52;;;8.27;;
10517;SDS011;5307;42.548;22.968;2022-08-21T02:54:41;14.88;;;8.10;;
10517;SDS011;5307;42.548;22.968;2022-08-21T02:57:08;13.52;;;7.68;;
10517;SDS011;5307;42.548;22.968;2022-08-21T02:59:35;15.23;;;8.00;;
10517;SDS011;5307;42.548;22.968;2022-08-21T03:02:02;10.90;;;8.18;;
10517;SDS011;5307;42.548;22.968;2022-08-21T03:04:31;12.35;;;7.85;;
10517;SDS011;5307;42.548;22.968;2022-08-21T03:06:57;14.90;;;8.38;;
10517;SDS011;5307;42.548;22.968;2022-08-21T03:09:24;12.65;;;7.63;;
10517;SDS011;5307;42.548;22.968;2022-08-21T03:11:51;17.20;;;8.40;;
10517;SDS011;5307;42.548;22.968;2022-08-21T03:14:18;10.63;;;7.75;;
10517;SDS011;5307;42.548;22.968;2022-08-21T03:16:45;12.90;;;7.68;;
10517;SDS011;5307;42.548;22.968;2022-08-21T03:19:12;13.93;;;6.50;;
10517;SDS011;5307;42.548;22.968;2022-08-21T03:21:40;19.58;;;7.20;;
10517;SDS011;5307;42.548;22.968;2022-08-21T03:24:07;11.75;;;5.53;;
10517;SDS011;5307;42.548;22.968;2022-08-21T03:26:34;14.68;;;5.80;;
10517;SDS011;5307;42.548;22.968;2022-08-21T03:29:01;15.57;;;5.20;;
10517;SDS011;5307;42.548;22.968;2022-08-21T03:31:28;9.52;;;4.63;;
10517;SDS011;5307;42.548;22.968;2022-08-21T03:33:56;10.18;;;5.15;;
10517;SDS011;5307;42.548;22.968;2022-08-21T03:36:23;12.43;;;6.03;;
10517;SDS011;5307;42.548;22.968;2022-08-21T03:38:52;10.48;;;6.88;;
10517;SDS011;5307;42.548;22.968;2022-08-21T03:41:19;9.95;;;5.13;;
10517;SDS011;5307;42.548;22.968;2022-08-21T03:43:46;48.15;;;8.55;;
10517;SDS011;5307;42.548;22.968;2022-08-21T03:46:13;162.07;;;11.20;;
10517;SDS011;5307;42.548;22.968;2022-08-21T03:48:40;44.33;;;7.97;;
10517;SDS011;5307;42.548;22.968;2022-08-21T03:51:07;38.58;;;8.25;;
10517;SDS011;5307;42.548;22.968;2022-08-21T03:53:34;32.35;;;8.93;;
10517;SDS011;5307;42.548;22.968;2022-08-21T03:56:03;53.05;;;9.05;;
10517;SDS011;5307;42.548;22.968;2022-08-21T03:58:31;38.80;;;7.65;;
10517;SDS011;5307;42.548;22.968;2022-08-21T04:00:59;16.33;;;6.82;;
10517;SDS011;5307;42.548;22.968;2022-08-21T04:03:28;12.35;;;7.60;;
10517;SDS011;5307;42.548;22.968;2022-08-21T04:05:55;18.73;;;8.30;;
10517;SDS011;5307;42.548;22.968;2022-08-21T04:08:22;10.30;;;7.40;;
10517;SDS011;5307;42.548;22.968;2022-08-21T04:10:50;12.88;;;6.90;;
10517;SDS011;5307;42.548;22.968;2022-08-21T04:13:20;18.85;;;7.85;;
10517;SDS011;5307;42.548;22.968;2022-08-21T04:15:48;14.98;;;7.95;;
10517;SDS011;5307;42.548;22.968;2022-08-21T04:18:15;10.35;;;7.50;;
10517;SDS011;5307;42.548;22.968;2022-08-21T04:20:43;10.27;;;6.82;;
10517;SDS011;5307;42.548;22.968;2022-08-21T04:23:13;11.65;;;6.43;;
10517;SDS011;5307;42.548;22.968;2022-08-21T04:25:39;10.85;;;5.57;;
10517;SDS011;5307;42.548;22.968;2022-08-21T04:28:06;8.93;;;5.10;;
10517;SDS011;5307;42.548;22.968;2022-08-21T04:30:34;7.18;;;5.60;;
10517;SDS011;5307;42.548;22.968;2022-08-21T04:33:01;13.95;;;5.68;;
10517;SDS011;5307;42.548;22.968;2022-08-21T04:35:29;11.40;;;5.35;;
10517;SDS011;5307;42.548;22.968;2022-08-21T04:37:56;15.48;;;7.70;;
10517;SDS011;5307;42.548;22.968;2022-08-21T04:40:24;16.95;;;8.15;;
10517;SDS011;5307;42.548;22.968;2022-08-21T04:42:53;15.02;;;8.18;;
10517;SDS011;5307;42.548;22.968;2022-08-21T04:45:21;17.33;;;8.90;;
10517;SDS011;5307;42.548;22.968;2022-08-21T04:47:51;18.13;;;7.18;;
10517;SDS011;5307;42.548;22.968;2022-08-21T04:50:20;14.85;;;6.25;;
10517;SDS011;5307;42.548;22.968;2022-08-21T04:52:50;11.48;;;6.05;;
10517;SDS011;5307;42.548;22.968;2022-08-21T04:55:18;13.23;;;9.13;;
10517;SDS011;5307;42.548;22.968;2022-08-21T04:57:46;17.42;;;9.18;;
10517;SDS011;5307;42.548;22.968;2022-08-21T05:00:16;17.77;;;10.32;;
10517;SDS011;5307;42.548;22.968;2022-08-21T05:02:44;16.02;;;10.15;;
10517;SDS011;5307;42.548;22.968;2022-08-21T05:05:13;19.52;;;10.00;;
10517;SDS011;5307;42.548;22.968;2022-08-21T05:07:41;14.73;;;9.90;;
10517;SDS011;5307;42.548;22.968;2022-08-21T05:10:10;15.90;;;11.18;;
10517;SDS011;5307;42.548;22.968;2022-08-21T05:12:39;17.35;;;11.02;;
10517;SDS011;5307;42.548;22.968;2022-08-21T05:15:07;18.65;;;10.32;;
10517;SDS011;5307;42.548;22.968;2022-08-21T05:17:34;23.23;;;11.23;;
10517;SDS011;5307;42.548;22.968;2022-08-21T05:20:01;22.17;;;10.95;;
10517;SDS011;5307;42.548;22.968;2022-08-21T05:22:29;21.58;;;11.25;;
10517;SDS011;5307;42.548;22.968;2022-08-21T05:24:56;20.35;;;10.85;;
10517;SDS011;5307;42.548;22.968;2022-08-21T05:27:23;17.15;;;10.70;;
10517;SDS011;5307;42.548;22.968;2022-08-21T05:29:50;21.42;;;11.20;;
10517;SDS011;5307;42.548;22.968;2022-08-21T05:32:17;20.15;;;12.15;;
10517;SDS011;5307;42.548;22.968;2022-08-21T05:34:44;19.20;;;11.88;;
10517;SDS011;5307;42.548;22.968;2022-08-21T05:37:11;21.95;;;11.95;;
10517;SDS011;5307;42.548;22.968;2022-08-21T05:39:40;17.83;;;10.80;;
10517;SDS011;5307;42.548;22.968;2022-08-21T05:42:06;18.00;;;11.07;;
10517;SDS011;5307;42.548;22.968;2022-08-21T05:44:33;21.70;;;12.45;;
10517;SDS011;5307;42.548;22.968;2022-08-21T05:47:04;18.27;;;10.70;;
10517;SDS011;5307;42.548;22.968;2022-08-21T05:49:32;17.88;;;12.15;;
10517;SDS011;5307;42.548;22.968;2022-08-21T05:51:59;25.33;;;12.18;;
10517;SDS011;5307;42.548;22.968;2022-08-21T05:54:27;24.20;;;12.52;;
10517;SDS011;5307;42.548;22.968;2022-08-21T05:56:55;19.60;;;11.95;;
10517;SDS011;5307;42.548;22.968;2022-08-21T05:59:22;19.42;;;11.15;;
10517;SDS011;5307;42.548;22.968;2022-08-21T06:01:49;14.75;;;11.07;;
10517;SDS011;5307;42.548;22.968;2022-08-21T06:04:17;18.20;;;10.65;;
10517;SDS011;5307;42.548;22.968;2022-08-21T06:06:44;16.27;;;10.45;;
10517;SDS011;5307;42.548;22.968;2022-08-21T06:09:12;16.25;;;10.63;;
10517;SDS011;5307;42.548;22.968;2022-08-21T06:11:39;21.88;;;11.13;;
10517;SDS011;5307;42.548;22.968;2022-08-21T06:14:07;15.15;;;11.00;;
10517;SDS011;5307;42.548;22.968;2022-08-21T06:16:34;21.23;;;11.65;;
10517;SDS011;5307;42.548;22.968;2022-08-21T06:19:01;18.92;;;10.70;;
10517;SDS011;5307;42.548;22.968;2022-08-21T06:21:28;15.85;;;10.55;;
10517;SDS011;5307;42.548;22.968;2022-08-21T06:23:55;16.50;;;9.52;;
10517;SDS011;5307;42.548;22.968;2022-08-21T06:26:21;13.50;;;9.82;;
10517;SDS011;5307;42.548;22.968;2022-08-21T06:28:49;20.10;;;11.32;;
10517;SDS011;5307;42.548;22.968;2022-08-21T06:31:19;17.40;;;11.23;;
10517;SDS011;5307;42.548;22.968;2022-08-21T06:33:47;16.52;;;10.93;;
10517;SDS011;5307;42.548;22.968;2022-08-21T06:36:15;16.42;;;11.55;;
10517;SDS011;5307;42.548;22.968;2022-08-21T06:38:42;20.38;;;11.95;;
10517;SDS011;5307;42.548;22.968;2022-08-21T06:41:10;20.30;;;11.43;;
10517;SDS011;5307;42.548;22.968;2022-08-21T06:43:37;19.85;;;10.77;;
10517;SDS011;5307;42.548;22.968;2022-08-21T06:46:04;14.77;;;10.88;;
10517;SDS011;5307;42.548;22.968;2022-08-21T06:48:33;16.45;;;10.57;;
10517;SDS011;5307;42.548;22.968;2022-08-21T06:51:00;18.20;;;10.98;;
10517;SDS011;5307;42.548;22.968;2022-08-21T06:53:27;21.98;;;12.27;;
10517;SDS011;5307;42.548;22.968;2022-08-21T06:55:54;15.23;;;10.70;;
10517;SDS011;5307;42.548;22.968;2022-08-21T06:58:21;18.98;;;9.70;;
10517;SDS011;5307;42.548;22.968;2022-08-21T07:00:49;15.80;;;10.05;;
10517;SDS011;5307;42.548;22.968;2022-08-21T07:03:18;20.98;;;10.30;;
10517;SDS011;5307;42.548;22.968;2022-08-21T07:05:48;12.82;;;9.98;;
10517;SDS011;5307;42.548;22.968;2022-08-21T07:08:15;20.83;;;10.85;;
10517;SDS011;5307;42.548;22.968;2022-08-21T07:10:42;13.60;;;9.85;;
10517;SDS011;5307;42.548;22.968;2022-08-21T07:13:10;13.23;;;9.27;;
10517;SDS011;5307;42.548;22.968;2022-08-21T07:15:36;14.57;;;10.25;;
10517;SDS011;5307;42.548;22.968;2022-08-21T07:18:03;14.65;;;9.00;;
10517;SDS011;5307;42.548;22.968;2022-08-21T07:20:31;18.08;;;11.10;;
10517;SDS011;5307;42.548;22.968;2022-08-21T07:23:01;16.35;;;9.63;;
10517;SDS011;5307;42.548;22.968;2022-08-21T07:25:29;18.20;;;9.68;;
10517;SDS011;5307;42.548;22.968;2022-08-21T07:27:57;14.88;;;9.98;;
10517;SDS011;5307;42.548;22.968;2022-08-21T07:30:24;18.73;;;10.90;;
10517;SDS011;5307;42.548;22.968;2022-08-21T07:32:51;18.77;;;11.52;;
10517;SDS011;5307;42.548;22.968;2022-08-21T07:35:20;20.52;;;11.13;;
10517;SDS011;5307;42.548;22.968;2022-08-21T07:37:47;16.10;;;10.52;;
10517;SDS011;5307;42.548;22.968;2022-08-21T07:40:16;14.52;;;9.98;;
10517;SDS011;5307;42.548;22.968;2022-08-21T07:42:45;16.92;;;10.85;;
10517;SDS011;5307;42.548;22.968;2022-08-21T07:45:15;15.95;;;10.15;;
10517;SDS011;5307;42.548;22.968;2022-08-21T07:47:42;19.25;;;10.05;;
10517;SDS011;5307;42.548;22.968;2022-08-21T07:50:09;16.33;;;9.38;;
10517;SDS011;5307;42.548;22.968;2022-08-21T07:52:37;12.68;;;9.27;;
10517;SDS011;5307;42.548;22.968;2022-08-21T07:55:05;16.42;;;9.90;;
10517;SDS011;5307;42.548;22.968;2022-08-21T07:57:34;17.45;;;9.35;;
10517;SDS011;5307;42.548;22.968;2022-08-21T08:00:01;16.33;;;9.05;;
10517;SDS011;5307;42.548;22.968;2022-08-21T08:02:29;15.32;;;7.85;;
10517;SDS011;5307;42.548;22.968;2022-08-21T08:04:58;13.80;;;7.65;;
10517;SDS011;5307;42.548;22.968;2022-08-21T08:07:25;12.05;;;6.75;;
10517;SDS011;5307;42.548;22.968;2022-08-21T08:09:53;11.40;;;6.38;;
10517;SDS011;5307;42.548;22.968;2022-08-21T08:12:19;11.70;;;7.43;;
10517;SDS011;5307;42.548;22.968;2022-08-21T08:14:48;9.00;;;6.60;;
10517;SDS011;5307;42.548;22.968;2022-08-21T08:17:15;10.70;;;6.60;;
10517;SDS011;5307;42.548;22.968;2022-08-21T08:19:41;15.05;;;7.28;;
10517;SDS011;5307;42.548;22.968;2022-08-21T08:22:14;8.25;;;5.50;;
10517;SDS011;5307;42.548;22.968;2022-08-21T08:24:42;12.25;;;6.40;;
10517;SDS011;5307;42.548;22.968;2022-08-21T08:27:09;10.70;;;5.93;;
10517;SDS011;5307;42.548;22.968;2022-08-21T08:29:35;9.90;;;5.93;;
10517;SDS011;5307;42.548;22.968;2022-08-21T08:32:04;10.32;;;5.65;;
10517;SDS011;5307;42.548;22.968;2022-08-21T08:34:32;13.98;;;5.90;;
10517;SDS011;5307;42.548;22.968;2022-08-21T08:36:59;11.88;;;6.32;;
10517;SDS011;5307;42.548;22.968;2022-08-21T08:39:26;10.30;;;5.78;;
10517;SDS011;5307;42.548;22.968;2022-08-21T08:41:54;12.13;;;6.03;;
10517;SDS011;5307;42.548;22.968;2022-08-21T08:44:26;10.13;;;6.40;;
10517;SDS011;5307;42.548;22.968;2022-08-21T08:46:52;12.10;;;6.28;;
10517;SDS011;5307;42.548;22.968;2022-08-21T08:49:23;12.27;;;6.57;;
10517;SDS011;5307;42.548;22.968;2022-08-21T08:51:53;9.45;;;5.85;;
10517;SDS011;5307;42.548;22.968;2022-08-21T08:54:25;9.93;;;5.93;;
10517;SDS011;5307;42.548;22.968;2022-08-21T08:56:57;7.93;;;5.63;;
10517;SDS011;5307;42.548;22.968;2022-08-21T08:59:26;10.63;;;6.47;;
10517;SDS011;5307;42.548;22.968;2022-08-21T09:01:59;11.40;;;6.75;;
10517;SDS011;5307;42.548;22.968;2022-08-21T09:04:27;13.23;;;7.15;;
10517;SDS011;5307;42.548;22.968;2022-08-21T09:07:01;13.32;;;6.22;;
10517;SDS011;5307;42.548;22.968;2022-08-21T09:09:41;12.48;;;7.03;;
10517;SDS011;5307;42.548;22.968;2022-08-21T09:12:18;9.13;;;6.55;;
10517;SDS011;5307;42.548;22.968;2022-08-21T09:14:58;12.13;;;6.18;;
10517;SDS011;5307;42.548;22.968;2022-08-21T09:17:37;13.43;;;7.25;;
10517;SDS011;5307;42.548;22.968;2022-08-21T09:20:23;13.57;;;7.55;;
10517;SDS011;5307;42.548;22.968;2022-08-21T09:23:02;12.30;;;8.05;;
10517;SDS011;5307;42.548;22.968;2022-08-21T09:25:40;15.23;;;7.43;;
10517;SDS011;5307;42.548;22.968;2022-08-21T09:28:09;11.48;;;7.40;;
10517;SDS011;5307;42.548;22.968;2022-08-21T09:30:39;13.55;;;7.72;;
10517;SDS011;5307;42.548;22.968;2022-08-21T09:33:07;16.48;;;6.93;;
10517;SDS011;5307;42.548;22.968;2022-08-21T09:35:47;9.02;;;6.82;;
10517;SDS011;5307;42.548;22.968;2022-08-21T09:38:23;13.27;;;8.50;;
10517;SDS011;5307;42.548;22.968;2022-08-21T09:40:56;13.77;;;8.43;;
10517;SDS011;5307;42.548;22.968;2022-08-21T09:43:25;12.32;;;7.38;;
10517;SDS011;5307;42.548;22.968;2022-08-21T09:46:01;14.32;;;6.97;;
10517;SDS011;5307;42.548;22.968;2022-08-21T09:48:38;9.68;;;7.30;;
10517;SDS011;5307;42.548;22.968;2022-08-21T09:51:10;13.10;;;7.28;;
10517;SDS011;5307;42.548;22.968;2022-08-21T09:53:39;15.80;;;8.05;;
10517;SDS011;5307;42.548;22.968;2022-08-21T09:56:18;18.65;;;7.45;;
10517;SDS011;5307;42.548;22.968;2022-08-21T09:59:15;20.00;;;8.38;;
10517;SDS011;5307;42.548;22.968;2022-08-21T10:01:45;21.65;;;9.02;;
10517;SDS011;5307;42.548;22.968;2022-08-21T10:07:19;17.73;;;8.60;;
10517;SDS011;5307;42.548;22.968;2022-08-21T10:13:07;16.70;;;8.15;;
10517;SDS011;5307;42.548;22.968;2022-08-21T10:16:30;18.02;;;8.60;;
10517;SDS011;5307;42.548;22.968;2022-08-21T10:19:55;16.48;;;9.05;;
10517;SDS011;5307;42.548;22.968;2022-08-21T10:22:40;19.00;;;7.68;;
10517;SDS011;5307;42.548;22.968;2022-08-21T10:25:49;16.45;;;6.93;;
10517;SDS011;5307;42.548;22.968;2022-08-21T10:28:25;15.02;;;7.90;;
10517;SDS011;5307;42.548;22.968;2022-08-21T10:30:59;20.67;;;8.20;;
10517;SDS011;5307;42.548;22.968;2022-08-21T10:33:33;22.10;;;8.77;;
10517;SDS011;5307;42.548;22.968;2022-08-21T10:36:09;14.13;;;8.18;;
10517;SDS011;5307;42.548;22.968;2022-08-21T10:38:55;13.45;;;8.07;;
10517;SDS011;5307;42.548;22.968;2022-08-21T10:41:32;19.65;;;8.23;;
10517;SDS011;5307;42.548;22.968;2022-08-21T10:44:11;16.05;;;8.27;;
10517;SDS011;5307;42.548;22.968;2022-08-21T10:46:50;18.77;;;7.60;;
10517;SDS011;5307;42.548;22.968;2022-08-21T10:49:25;16.92;;;8.23;;
10517;SDS011;5307;42.548;22.968;2022-08-21T10:52:05;15.10;;;7.97;;
10517;SDS011;5307;42.548;22.968;2022-08-21T10:54:52;16.90;;;7.93;;
10517;SDS011;5307;42.548;22.968;2022-08-21T10:57:24;12.43;;;7.13;;
10517;SDS011;5307;42.548;22.968;2022-08-21T10:59:58;25.25;;;7.80;;
10517;SDS011;5307;42.548;22.968;2022-08-21T11:02:32;19.77;;;7.13;;
10517;SDS011;5307;42.548;22.968;2022-08-21T11:05:05;15.05;;;7.00;;
10517;SDS011;5307;42.548;22.968;2022-08-21T11:07:38;14.65;;;8.05;;
10517;SDS011;5307;42.548;22.968;2022-08-21T11:10:12;12.75;;;6.78;;
10517;SDS011;5307;42.548;22.968;2022-08-21T11:12:52;13.32;;;6.90;;
10517;SDS011;5307;42.548;22.968;2022-08-21T11:15:34;11.73;;;6.63;;
10517;SDS011;5307;42.548;22.968;2022-08-21T11:18:10;19.17;;;6.88;;
10517;SDS011;5307;42.548;22.968;2022-08-21T11:20:49;13.57;;;6.90;;
10517;SDS011;5307;42.548;22.968;2022-08-21T11:23:40;12.95;;;6.82;;
10517;SDS011;5307;42.548;22.968;2022-08-21T11:26:13;11.60;;;6.90;;
10517;SDS011;5307;42.548;22.968;2022-08-21T11:28:45;16.33;;;7.30;;
10517;SDS011;5307;42.548;22.968;2022-08-21T11:31:26;11.27;;;7.20;;
10517;SDS011;5307;42.548;22.968;2022-08-21T11:34:11;18.73;;;8.32;;
10517;SDS011;5307;42.548;22.968;2022-08-21T11:36:50;14.50;;;7.50;;
10517;SDS011;5307;42.548;22.968;2022-08-21T11:39:22;11.65;;;7.75;;
10517;SDS011;5307;42.548;22.968;2022-08-21T11:41:59;10.07;;;7.38;;
10517;SDS011;5307;42.548;22.968;2022-08-21T11:44:38;13.55;;;6.65;;
10517;SDS011;5307;42.548;22.968;2022-08-21T11:47:14;14.13;;;7.28;;
10517;SDS011;5307;42.548;22.968;2022-08-21T11:50:00;19.85;;;8.90;;
10517;SDS011;5307;42.548;22.968;2022-08-21T11:52:35;12.20;;;6.65;;
10517;SDS011;5307;42.548;22.968;2022-08-21T11:55:09;12.02;;;6.47;;
10517;SDS011;5307;42.548;22.968;2022-08-21T11:57:44;15.70;;;7.55;;
10517;SDS011;5307;42.548;22.968;2022-08-21T12:00:18;11.95;;;6.93;;
10517;SDS011;5307;42.548;22.968;2022-08-21T12:02:50;13.60;;;7.15;;
10517;SDS011;5307;42.548;22.968;2022-08-21T12:05:25;12.98;;;6.93;;
10517;SDS011;5307;42.548;22.968;2022-08-21T12:08:01;12.80;;;7.32;;
10517;SDS011;5307;42.548;22.968;2022-08-21T12:10:33;12.02;;;6.38;;
10517;SDS011;5307;42.548;22.968;2022-08-21T12:13:21;11.85;;;6.80;;
10517;SDS011;5307;42.548;22.968;2022-08-21T12:15:50;9.88;;;6.43;;
10517;SDS011;5307;42.548;22.968;2022-08-21T12:18:21;12.70;;;7.10;;
10517;SDS011;5307;42.548;22.968;2022-08-21T12:20:58;10.30;;;6.65;;
10517;SDS011;5307;42.548;22.968;2022-08-21T12:23:29;11.93;;;7.18;;
10517;SDS011;5307;42.548;22.968;2022-08-21T12:26:14;12.93;;;7.70;;
10517;SDS011;5307;42.548;22.968;2022-08-21T12:28:50;14.73;;;8.10;;
10517;SDS011;5307;42.548;22.968;2022-08-21T12:31:22;10.98;;;7.88;;
10517;SDS011;5307;42.548;22.968;2022-08-21T12:33:52;16.75;;;9.38;;
10517;SDS011;5307;42.548;22.968;2022-08-21T12:36:23;17.15;;;8.73;;
10517;SDS011;5307;42.548;22.968;2022-08-21T12:38:57;13.57;;;8.05;;
10517;SDS011;5307;42.548;22.968;2022-08-21T12:41:27;15.13;;;9.07;;
10517;SDS011;5307;42.548;22.968;2022-08-21T12:44:00;16.42;;;9.65;;
10517;SDS011;5307;42.548;22.968;2022-08-21T12:46:36;21.77;;;9.75;;
10517;SDS011;5307;42.548;22.968;2022-08-21T12:49:07;17.10;;;9.68;;
10517;SDS011;5307;42.548;22.968;2022-08-21T12:51:46;22.77;;;8.80;;
10517;SDS011;5307;42.548;22.968;2022-08-21T12:54:22;26.67;;;10.90;;
10517;SDS011;5307;42.548;22.968;2022-08-21T12:56:57;18.75;;;9.63;;
10517;SDS011;5307;42.548;22.968;2022-08-21T12:59:27;18.45;;;10.07;;
10517;SDS011;5307;42.548;22.968;2022-08-21T13:01:54;20.55;;;9.05;;
10517;SDS011;5307;42.548;22.968;2022-08-21T13:04:24;24.08;;;7.95;;
10517;SDS011;5307;42.548;22.968;2022-08-21T13:06:58;14.43;;;8.45;;
10517;SDS011;5307;42.548;22.968;2022-08-21T13:09:27;12.52;;;8.15;;
10517;SDS011;5307;42.548;22.968;2022-08-21T13:11:56;13.48;;;7.85;;
10517;SDS011;5307;42.548;22.968;2022-08-21T13:14:27;18.73;;;8.13;;
10517;SDS011;5307;42.548;22.968;2022-08-21T13:16:57;11.75;;;7.68;;
10517;SDS011;5307;42.548;22.968;2022-08-21T13:19:25;13.75;;;7.18;;
10517;SDS011;5307;42.548;22.968;2022-08-21T13:21:54;15.23;;;7.55;;
10517;SDS011;5307;42.548;22.968;2022-08-21T13:24:23;15.93;;;9.32;;
10517;SDS011;5307;42.548;22.968;2022-08-21T13:26:51;24.67;;;12.32;;
10517;SDS011;5307;42.548;22.968;2022-08-21T13:29:20;20.63;;;12.73;;
10517;SDS011;5307;42.548;22.968;2022-08-21T13:31:51;29.60;;;13.85;;
10517;SDS011;5307;42.548;22.968;2022-08-21T13:34:19;30.52;;;13.63;;
10517;SDS011;5307;42.548;22.968;2022-08-21T13:36:50;30.90;;;14.80;;
10517;SDS011;5307;42.548;22.968;2022-08-21T13:39:19;26.30;;;13.98;;
10517;SDS011;5307;42.548;22.968;2022-08-21T13:41:47;25.30;;;13.48;;
10517;SDS011;5307;42.548;22.968;2022-08-21T13:44:18;23.10;;;13.77;;
10517;SDS011;5307;42.548;22.968;2022-08-21T13:46:47;26.27;;;14.00;;
10517;SDS011;5307;42.548;22.968;2022-08-21T13:49:17;25.65;;;13.43;;
10517;SDS011;5307;42.548;22.968;2022-08-21T13:51:46;20.17;;;12.93;;
10517;SDS011;5307;42.548;22.968;2022-08-21T13:54:20;27.67;;;12.88;;
10517;SDS011;5307;42.548;22.968;2022-08-21T13:56:51;20.83;;;12.98;;
10517;SDS011;5307;42.548;22.968;2022-08-21T13:59:27;21.85;;;12.10;;
10517;SDS011;5307;42.548;22.968;2022-08-21T14:01:57;20.90;;;12.82;;
10517;SDS011;5307;42.548;22.968;2022-08-21T14:04:35;29.65;;;12.05;;
10517;SDS011;5307;42.548;22.968;2022-08-21T14:07:13;18.33;;;10.98;;
10517;SDS011;5307;42.548;22.968;2022-08-21T14:09:42;24.70;;;11.05;;
10517;SDS011;5307;42.548;22.968;2022-08-21T14:12:12;18.40;;;10.73;;
10517;SDS011;5307;42.548;22.968;2022-08-21T14:14:41;18.77;;;10.93;;
10517;SDS011;5307;42.548;22.968;2022-08-21T14:17:09;18.23;;;10.63;;
10517;SDS011;5307;42.548;22.968;2022-08-21T14:19:41;19.08;;;10.80;;
10517;SDS011;5307;42.548;22.968;2022-08-21T14:22:29;18.02;;;11.55;;
10517;SDS011;5307;42.548;22.968;2022-08-21T14:24:59;17.58;;;10.98;;
10517;SDS011;5307;42.548;22.968;2022-08-21T14:27:27;20.60;;;10.30;;
10517;SDS011;5307;42.548;22.968;2022-08-21T14:29:57;21.20;;;10.98;;
10517;SDS011;5307;42.548;22.968;2022-08-21T14:32:28;18.42;;;10.85;;
10517;SDS011;5307;42.548;22.968;2022-08-21T14:35:02;17.30;;;9.80;;
10517;SDS011;5307;42.548;22.968;2022-08-21T14:37:32;15.88;;;9.75;;
10517;SDS011;5307;42.548;22.968;2022-08-21T14:39:59;15.18;;;8.90;;
10517;SDS011;5307;42.548;22.968;2022-08-21T14:42:26;14.15;;;8.88;;
10517;SDS011;5307;42.548;22.968;2022-08-21T14:44:55;12.23;;;7.32;;
10517;SDS011;5307;42.548;22.968;2022-08-21T14:47:26;11.23;;;6.80;;
10517;SDS011;5307;42.548;22.968;2022-08-21T14:49:53;13.63;;;8.00;;
10517;SDS011;5307;42.548;22.968;2022-08-21T14:52:21;12.93;;;8.05;;
10517;SDS011;5307;42.548;22.968;2022-08-21T14:54:49;14.32;;;9.85;;
10517;SDS011;5307;42.548;22.968;2022-08-21T14:57:15;21.83;;;10.20;;
10517;SDS011;5307;42.548;22.968;2022-08-21T14:59:42;13.07;;;9.80;;